Kenner, LA

3:46 PM CST on March 06, 2015 (GMT -0600)
DeSoto | Change Station
CLOSE
Current Station
Personal Weather Station
Location: Metairie, LA
Elevation: 7 ft
Nearby Weather Stations

Elev 7 ft 29.98 °N, 90.22 °W | Updated 47 seconds ago

Overcast
Overcast
54.0 °F
Feels Like 54.0 °F
N
4.5
Wind Variable Wind from South
Gusts 9.2 mph

Today
High -- | Low -- °F
--% Chance of Precip.
Yesterday
High -- | Low -- °F
Precip. -- in
6:21 AM 6:03 PM
Full, 99% visible
Pressure 30.43 in
Visibility 10.0 miles
Clouds Few 18000 ft
Overcast 25000 ft
Dew Point 16 °F
Humidity 22%
Rainfall in
Snow Depth Not available.
UV 0.0 out of 12
Pollen 9.40 out of 12
Air Quality Not available.
Flu Activity Not available.
METAR KMSY 062053Z 02011KT 10SM FEW180 OVC250 11/M08 A3042 RMK AO2 SLP305 T01061078 56023

More Conditions Fewer Conditions

Pressure 30.43 in
Visibility 10.0 miles
Clouds Few 18000 ft
Overcast 25000 ft
Dew Point 16 °F
Humidity 22%
Rainfall in
Snow Depth Not available.
UV 0.0 out of 12
Pollen 9.40 out of 12
Air Quality Not available.
Flu Activity Not available.
METAR KMSY 062053Z 02011KT 10SM FEW180 OVC250 11/M08 A3042 RMK AO2 SLP305 T01061078 56023

More Conditions Fewer Conditions

10-Day Weather Forecast

Almanac

Astronomy

Mar. 06, 2015 Rise Set
Actual Time
Civil Twilight
Nautical Twilight
Astronomical Twilight
Moon
Length of Visible Light
Length of Day
Tomorrow will be .
, % of the Moon is Illuminated

Today's Extremes

State Highs State Lows

Community

WunderPhotos

Upload Photos

1,803,406 photos uploaded!

WunderBlogs® & News

Nearby

Air Quality

  Air Quality AQ Index Pollutant
Not available.

Snow Depth

Station Depth Elevation

Earthquake Activity

City Distance Mag. Time & Date
Minimum magnitude displayed is 2.5.

Coastal Water Temperatures

Place Temperature

Nearby Weather Stations